Time,TemperatureF,DewpointF,PressureIn,WindDirection,WindDirectionDegrees,WindSpeedMPH,WindSpeedGustMPH,Humidity,HourlyPrecipIn,Conditions,Clouds,dailyrainin,SoftwareType,DateUTC
2013-09-03 02:52:00,61.0,55.0,-100.00,WSW,240,18.0,25.0,81,-99.99,,,-99.99,,2013-09-03 06:52:00,
2013-09-03 04:22:00,61.0,55.0,-100.00,West,260,18.0,25.0,81,-99.99,,,-99.99,,2013-09-03 08:22:00,
2013-09-03 05:43:00,61.0,55.0,-100.00,West,260,18.0,25.0,80,-99.99,,,-99.99,,2013-09-03 09:43:00,
2013-09-03 06:40:00,62.0,54.0,-100.00,WNW,300,18.0,22.0,77,-99.99,,,-99.99,,2013-09-03 10:40:00,
2013-09-03 07:30:00,61.0,55.0,-100.00,WNW,290,18.0,22.0,79,-99.99,,,-99.99,,2013-09-03 11:30:00,
2013-09-03 08:12:00,61.0,55.0,-100.00,WNW,290,18.0,22.0,79,-99.99,,,-99.99,,2013-09-03 12:12:00,
2013-09-03 08:21:00,61.0,55.0,-100.00,WNW,290,18.0,22.0,79,-99.99,,,-99.99,,2013-09-03 12:21:00,
2013-09-03 09:21:00,61.0,56.0,-100.00,NW,320,16.0,20.0,82,-99.99,,,-99.99,,2013-09-03 13:21:00,
2013-09-03 10:30:00,62.0,55.0,-100.00,NW,310,13.0,16.0,79,-99.99,,,-99.99,,2013-09-03 14:30:00,
2013-09-03 10:50:00,62.0,54.0,-100.00,WNW,300,13.0,16.0,77,-99.99,,,-99.99,,2013-09-03 14:50:00,
2013-09-03 11:22:00,62.0,55.0,-100.00,NW,310,13.0,16.0,79,-99.99,,,-99.99,,2013-09-03 15:22:00,
2013-09-03 11:50:00,62.0,55.0,-100.00,West,280,13.0,18.0,77,-99.99,,,-99.99,,2013-09-03 15:50:00,
2013-09-03 12:43:00,62.0,55.0,-100.00,West,280,13.0,18.0,77,-99.99,,,-99.99,,2013-09-03 16:43:00,
2013-09-03 14:11:00,63.0,53.0,-100.00,West,260,16.0,20.0,70,-99.99,,,-99.99,,2013-09-03 18:11:00,
2013-09-03 14:21:00,63.0,53.0,-100.00,West,260,16.0,20.0,70,-99.99,,,-99.99,,2013-09-03 18:21:00,
2013-09-03 14:32:00,63.0,53.0,-100.00,West,260,16.0,20.0,70,-99.99,,,-99.99,,2013-09-03 18:32:00,
2013-09-03 16:42:00,65.0,54.0,-100.00,WSW,250,18.0,22.0,68,-99.99,,,-99.99,,2013-09-03 20:42:00,
2013-09-03 18:00:00,66.0,59.0,-100.00,WSW,240,18.0,25.0,76,-99.99,,,-99.99,,2013-09-03 22:00:00,
2013-09-03 18:42:00,66.0,59.0,-100.00,WSW,240,18.0,25.0,76,-99.99,,,-99.99,,2013-09-03 22:42:00,
2013-09-03 18:52:00,66.0,59.0,-100.00,WSW,240,18.0,25.0,76,-99.99,,,-99.99,,2013-09-03 22:52:00,
2013-09-03 21:11:00,65.0,58.0,-100.00,SW,230,13.0,18.0,77,-99.99,,,-99.99,,2013-09-04 01:11:00,
2013-09-03 23:11:00,65.0,56.0,-100.00,SW,220,16.0,20.0,74,-99.99,,,-99.99,,2013-09-04 03:11:00,
2013-09-03 23:22:00,65.0,56.0,-100.00,SW,220,16.0,20.0,74,-99.99,,,-99.99,,2013-09-04 03:22:00,
2013-09-03 23:34:00,65.0,56.0,-100.00,SW,220,16.0,20.0,74,-99.99,,,-99.99,,2013-09-04 03:34:00,